createdAt,value
2023-03-06T00:00:58.963Z,57.80
2023-03-06T00:03:28.316Z,59.38
2023-03-06T00:05:59.613Z,63.02
2023-03-06T00:08:30.411Z,60.51
2023-03-06T00:10:57.452Z,60.90
2023-03-06T00:13:27.156Z,62.79
2023-03-06T00:15:54.090Z,63.12
2023-03-06T00:18:21.010Z,62.96
2023-03-06T00:20:48.035Z,61.19
2023-03-06T00:23:15.187Z,60.77
2023-03-06T00:25:45.840Z,60.40
2023-03-06T00:28:15.241Z,59.40
2023-03-06T00:30:44.761Z,60.37
2023-03-06T00:33:12.530Z,59.37
2023-03-06T00:35:43.074Z,61.15
2023-03-06T00:38:16.035Z,62.37
2023-03-06T00:40:43.261Z,60.86
2023-03-06T00:43:10.499Z,60.17
2023-03-06T00:45:37.670Z,59.48
2023-03-06T00:48:07.855Z,58.46
2023-03-06T00:50:35.721Z,59.00
2023-03-06T00:53:02.645Z,58.21
2023-03-06T00:55:31.140Z,58.03
2023-03-06T00:57:58.194Z,58.66
2023-03-06T01:00:25.293Z,58.13
2023-03-06T01:02:53.872Z,57.91
2023-03-06T01:05:21.181Z,57.32
2023-03-06T01:07:48.218Z,57.93
2023-03-06T01:10:15.140Z,57.35
2023-03-06T01:12:43.211Z,57.21
2023-03-06T01:15:12.960Z,58.90
2023-03-06T01:17:40.028Z,60.33
2023-03-06T01:20:07.600Z,60.00
2023-03-06T01:22:34.535Z,61.59
2023-03-06T01:25:01.567Z,58.62
2023-03-06T01:27:28.498Z,57.99
2023-03-06T01:29:55.660Z,57.44
2023-03-06T01:32:22.652Z,56.63
2023-03-06T01:34:49.530Z,57.31
2023-03-06T01:37:16.690Z,57.48
2023-03-06T01:39:43.592Z,57.13
2023-03-06T01:42:10.530Z,57.73
2023-03-06T01:44:37.512Z,57.07
2023-03-06T01:47:04.593Z,57.17
2023-03-06T01:49:36.596Z,56.42
2023-03-06T01:52:13.994Z,56.71
2023-03-06T01:54:56.685Z,56.48
2023-03-06T01:57:49.216Z,56.10
2023-03-06T02:00:24.579Z,56.29
2023-03-06T02:03:06.704Z,56.49
2023-03-06T02:05:34.018Z,57.84
2023-03-06T02:08:06.224Z,58.36
2023-03-06T02:10:33.610Z,59.32
2023-03-06T02:13:03.098Z,59.23
2023-03-06T02:15:34.054Z,60.36
2023-03-06T02:18:02.488Z,59.88
2023-03-06T02:20:38.332Z,60.64
2023-03-06T02:23:56.121Z,60.29
2023-03-06T02:26:28.969Z,61.66
2023-03-06T02:28:57.758Z,61.60
2023-03-06T02:31:29.036Z,60.53
2023-03-06T02:34:27.588Z,59.39
2023-03-06T02:37:04.215Z,60.15
2023-03-06T02:39:34.601Z,59.07
2023-03-06T02:42:01.486Z,59.25
2023-03-06T02:44:29.198Z,58.81
2023-03-06T02:46:56.503Z,58.55
2023-03-06T02:49:26.069Z,58.13
2023-03-06T02:51:55.924Z,57.56
2023-03-06T02:54:22.776Z,57.86
2023-03-06T02:56:49.621Z,58.07
2023-03-06T02:59:16.602Z,59.17
2023-03-06T03:01:45.729Z,63.90
2023-03-06T03:04:12.760Z,62.92
2023-03-06T03:06:39.895Z,61.83
2023-03-06T03:09:07.801Z,63.85
2023-03-06T03:11:35.020Z,63.32
2023-03-06T03:14:01.987Z,64.09
2023-03-06T03:16:29.047Z,66.59
2023-03-06T03:18:55.968Z,65.73
2023-03-06T03:21:23.005Z,63.80
2023-03-06T03:23:50.172Z,63.66
2023-03-06T03:26:28.042Z,61.91
2023-03-06T03:29:14.945Z,61.18
2023-03-06T03:31:41.985Z,60.34
2023-03-06T03:34:08.972Z,59.77
2023-03-06T03:36:36.397Z,60.06
2023-03-06T03:39:06.486Z,60.04
2023-03-06T03:41:36.579Z,58.90
2023-03-06T03:44:03.516Z,60.64
2023-03-06T03:46:30.710Z,63.28
2023-03-06T03:48:57.574Z,62.47
2023-03-06T03:51:25.656Z,62.95
2023-03-06T03:54:09.866Z,62.78
2023-03-06T03:56:36.847Z,61.37
2023-03-06T03:59:05.205Z,59.53
2023-03-06T04:01:32.110Z,60.58
2023-03-06T04:03:59.016Z,59.65
2023-03-06T04:06:25.931Z,61.63
2023-03-06T04:08:52.857Z,60.44
2023-03-06T04:11:19.760Z,60.58
2023-03-06T04:13:46.730Z,61.61
2023-03-06T04:16:13.972Z,61.14
2023-03-06T04:18:41.122Z,65.32
2023-03-06T04:21:09.956Z,64.80
2023-03-06T04:23:36.851Z,65.20
2023-03-06T04:26:04.205Z,63.66
2023-03-06T04:28:31.301Z,62.08
2023-03-06T04:31:02.817Z,60.75
2023-03-06T04:33:29.884Z,62.18
2023-03-06T04:35:56.988Z,60.77
2023-03-06T04:38:23.836Z,61.12
2023-03-06T04:40:50.833Z,61.08
2023-03-06T04:43:18.188Z,60.23
2023-03-06T04:45:45.273Z,60.79
2023-03-06T04:48:20.002Z,60.45
2023-03-06T04:50:47.314Z,60.04
2023-03-06T04:53:17.447Z,62.97
2023-03-06T04:55:46.667Z,62.06
2023-03-06T04:58:14.616Z,62.84
2023-03-06T05:00:41.552Z,62.15
2023-03-06T05:03:09.692Z,59.59
2023-03-06T05:05:36.573Z,59.41
2023-03-06T05:08:03.484Z,60.71
2023-03-06T05:10:30.510Z,60.65
2023-03-06T05:12:57.456Z,61.08
2023-03-06T05:15:24.418Z,59.00
2023-03-06T05:17:52.573Z,60.83
2023-03-06T05:20:19.525Z,59.17
2023-03-06T05:22:46.509Z,59.98
2023-03-06T05:25:13.721Z,60.90
2023-03-06T05:27:41.162Z,63.21
2023-03-06T05:30:17.369Z,61.52
2023-03-06T05:32:44.556Z,61.31
2023-03-06T05:35:20.034Z,60.86
2023-03-06T05:37:47.812Z,63.87
2023-03-06T05:40:16.242Z,62.70
2023-03-06T05:42:43.472Z,61.49
2023-03-06T05:45:11.111Z,60.92
2023-03-06T05:47:38.344Z,61.47
2023-03-06T05:50:09.774Z,65.03
2023-03-06T05:52:41.448Z,64.47
2023-03-06T05:55:10.825Z,63.42
2023-03-06T05:57:37.818Z,63.79
2023-03-06T06:00:06.836Z,63.09
2023-03-06T06:02:33.878Z,63.97
2023-03-06T06:05:13.071Z,66.10
2023-03-06T06:07:41.162Z,66.11
2023-03-06T06:10:08.904Z,64.43
2023-03-06T06:12:36.175Z,65.37
2023-03-06T06:15:05.662Z,63.76
2023-03-06T06:17:33.541Z,64.82
2023-03-06T06:20:00.671Z,63.63
2023-03-06T06:22:27.698Z,65.51
2023-03-06T06:24:54.790Z,65.29
2023-03-06T06:27:21.909Z,64.05
2023-03-06T06:29:52.697Z,64.40
2023-03-06T06:32:20.114Z,63.68
2023-03-06T06:34:47.415Z,65.18
2023-03-06T06:37:15.151Z,65.26
2023-03-06T06:39:42.061Z,65.17
2023-03-06T06:42:29.327Z,61.93
2023-03-06T06:44:57.310Z,62.47
2023-03-06T06:47:26.115Z,63.64
2023-03-06T06:49:54.965Z,63.55
2023-03-06T06:52:23.368Z,64.25
2023-03-06T06:54:52.645Z,62.41
2023-03-06T06:57:19.689Z,62.98
2023-03-06T06:59:46.838Z,64.33
2023-03-06T07:02:16.641Z,63.31
2023-03-06T07:05:00.309Z,61.93
2023-03-06T07:07:30.286Z,64.36
2023-03-06T07:09:59.412Z,64.50
2023-03-06T07:12:29.198Z,65.27
2023-03-06T07:14:58.629Z,65.82
2023-03-06T07:17:25.625Z,63.44
2023-03-06T07:19:53.019Z,64.15
2023-03-06T07:22:19.962Z,64.89
2023-03-06T07:24:46.886Z,64.56
2023-03-06T07:27:13.882Z,63.36
2023-03-06T07:29:43.349Z,60.79
2023-03-06T07:32:12.156Z,62.88
2023-03-06T07:34:39.228Z,62.39
2023-03-06T07:37:08.306Z,64.90
2023-03-06T07:39:35.474Z,61.66
2023-03-06T07:42:05.682Z,59.45
2023-03-06T07:44:37.942Z,59.83
2023-03-06T07:47:06.505Z,58.53
2023-03-06T07:49:39.632Z,58.47
2023-03-06T07:52:06.811Z,57.00
2023-03-06T07:54:35.403Z,58.71
2023-03-06T07:57:03.489Z,57.29
2023-03-06T07:59:30.897Z,56.45
2023-03-06T08:01:58.243Z,55.45
2023-03-06T08:04:26.464Z,56.00
2023-03-06T08:06:57.769Z,57.49
2023-03-06T08:09:27.719Z,56.61
2023-03-06T08:11:54.694Z,57.43
2023-03-06T08:14:25.652Z,56.29
2023-03-06T08:16:56.229Z,55.91
2023-03-06T08:19:23.576Z,55.84
2023-03-06T08:21:50.902Z,56.12
2023-03-06T08:24:18.956Z,57.38
2023-03-06T08:26:51.080Z,55.87
2023-03-06T08:29:18.630Z,55.46
2023-03-06T08:31:55.524Z,54.76
2023-03-06T08:34:27.288Z,54.00
2023-03-06T08:39:35.242Z,54.45
2023-03-06T08:42:02.330Z,52.65
2023-03-06T08:44:29.383Z,54.33
2023-03-06T08:46:56.437Z,54.27
2023-03-06T08:49:24.055Z,54.29
2023-03-06T08:51:54.493Z,54.67
2023-03-06T08:54:21.658Z,52.58
2023-03-06T08:56:48.917Z,53.78
2023-03-06T08:59:15.942Z,53.02
2023-03-06T09:01:44.099Z,53.83
2023-03-06T09:04:12.670Z,54.03
2023-03-06T09:06:42.564Z,53.46
2023-03-06T09:09:10.817Z,52.91
2023-03-06T09:11:40.759Z,51.46
2023-03-06T09:14:07.952Z,53.79
2023-03-06T09:16:35.167Z,50.09
2023-03-06T09:19:13.342Z,48.36
2023-03-06T09:21:52.304Z,49.47
2023-03-06T09:24:19.645Z,48.93
2023-03-06T09:26:49.389Z,46.03
2023-03-06T09:29:17.739Z,47.48
2023-03-06T09:31:45.612Z,46.59
2023-03-06T09:34:12.925Z,46.52
2023-03-06T09:36:55.518Z,47.82
2023-03-06T09:39:25.414Z,48.76
2023-03-06T09:41:53.673Z,46.08
2023-03-06T09:44:32.666Z,44.24
2023-03-06T09:47:38.924Z,43.06
2023-03-06T09:50:15.903Z,42.74
2023-03-06T09:53:10.894Z,41.35
2023-03-06T09:55:42.606Z,38.81
2023-03-06T09:58:18.493Z,42.35
2023-03-06T10:01:06.830Z,40.71
2023-03-06T10:03:49.069Z,43.04
2023-03-06T10:06:52.813Z,43.65
2023-03-06T10:09:42.382Z,42.58
2023-03-06T10:12:36.434Z,41.37
2023-03-06T10:15:20.152Z,41.15
2023-03-06T10:17:51.079Z,42.37
2023-03-06T10:20:23.821Z,42.17
2023-03-06T10:23:29.124Z,43.89
2023-03-06T10:26:13.351Z,44.71
2023-03-06T10:28:59.568Z,45.04
2023-03-06T10:31:31.795Z,44.65
2023-03-06T10:34:05.874Z,43.93
2023-03-06T10:36:32.957Z,41.39
2023-03-06T10:39:00.832Z,38.78
2023-03-06T10:41:35.527Z,39.09
2023-03-06T10:44:09.606Z,35.41
2023-03-06T10:46:45.263Z,34.08
2023-03-06T10:49:15.526Z,33.58
2023-03-06T10:51:57.276Z,32.62
2023-03-06T10:54:25.424Z,35.48
2023-03-06T10:56:52.449Z,34.53
2023-03-06T10:59:27.419Z,36.53
2023-03-06T11:02:14.567Z,34.74
2023-03-06T11:04:50.411Z,33.67
2023-03-06T11:07:29.544Z,34.49
2023-03-06T11:10:19.760Z,34.04
2023-03-06T11:13:23.592Z,33.18
2023-03-06T11:16:04.257Z,31.43
2023-03-06T11:18:36.360Z,32.47
2023-03-06T11:21:07.557Z,30.07
2023-03-06T11:23:46.963Z,32.33
2023-03-06T11:26:17.002Z,32.81
2023-03-06T11:29:19.096Z,34.48
2023-03-06T11:32:07.869Z,35.07
2023-03-06T11:34:50.426Z,36.40
2023-03-06T11:37:33.188Z,35.98
2023-03-06T11:40:10.669Z,37.02
2023-03-06T11:43:00.714Z,37.49
2023-03-06T11:45:40.648Z,38.10
2023-03-06T11:48:17.804Z,35.66
2023-03-06T11:50:53.261Z,34.73
2023-03-06T11:53:30.977Z,33.74
2023-03-06T11:56:05.251Z,35.37
2023-03-06T11:59:00.503Z,36.82
2023-03-06T12:01:52.230Z,38.82
2023-03-06T12:04:53.534Z,38.20
2023-03-06T12:07:31.736Z,36.69
2023-03-06T12:10:23.950Z,37.72
2023-03-06T12:13:21.133Z,38.30
2023-03-06T12:16:18.288Z,38.61
2023-03-06T12:19:12.076Z,36.95
2023-03-06T12:21:58.023Z,36.46
2023-03-06T12:24:56.474Z,37.23
2023-03-06T12:27:37.450Z,36.78
2023-03-06T12:30:33.092Z,38.02
2023-03-06T12:33:24.423Z,37.03
2023-03-06T12:36:33.924Z,37.85
2023-03-06T12:39:24.426Z,36.86
2023-03-06T12:42:23.754Z,36.06
2023-03-06T12:45:20.322Z,35.74
2023-03-06T12:47:51.905Z,36.51
2023-03-06T12:50:32.645Z,37.02
2023-03-06T12:53:04.667Z,36.53
2023-03-06T12:56:02.755Z,35.46
2023-03-06T12:58:30.121Z,36.65
2023-03-06T13:01:07.843Z,36.51
2023-03-06T13:03:53.057Z,36.77
2023-03-06T13:06:54.573Z,37.67
2023-03-06T13:09:49.617Z,37.51
2023-03-06T13:12:41.684Z,36.54
2023-03-06T13:15:34.289Z,36.70
2023-03-06T13:18:04.020Z,36.60
2023-03-06T13:21:02.376Z,36.49
2023-03-06T13:23:37.910Z,36.55
2023-03-06T13:26:32.296Z,36.92
2023-03-06T13:28:59.555Z,36.73
2023-03-06T13:31:40.268Z,36.47
2023-03-06T13:35:01.316Z,36.97
2023-03-06T13:37:34.426Z,36.55
2023-03-06T13:40:14.434Z,38.20
2023-03-06T13:42:44.527Z,37.65
2023-03-06T13:45:33.787Z,38.53
2023-03-06T13:48:37.539Z,37.81
2023-03-06T13:50:50.374Z,37.53
2023-03-06T13:53:41.017Z,38.38
2023-03-06T13:56:46.010Z,39.07
2023-03-06T13:59:36.720Z,38.80
2023-03-06T14:02:30.863Z,38.64
2023-03-06T14:05:00.171Z,38.43
2023-03-06T14:07:44.654Z,38.64
2023-03-06T14:10:14.829Z,38.83
2023-03-06T14:12:52.971Z,39.22
2023-03-06T14:15:31.860Z,39.10
2023-03-06T14:18:14.394Z,38.76
2023-03-06T14:20:52.291Z,39.54
2023-03-06T14:23:23.968Z,38.33
2023-03-06T14:26:27.108Z,38.13
2023-03-06T14:29:00.411Z,38.81
2023-03-06T14:31:43.128Z,38.46
2023-03-06T14:34:28.874Z,39.87
2023-03-06T14:37:19.055Z,39.04
2023-03-06T14:39:49.277Z,38.59
2023-03-06T14:42:26.186Z,39.19
2023-03-06T14:45:14.684Z,39.54
2023-03-06T14:47:57.641Z,40.15
2023-03-06T14:50:33.287Z,39.90
2023-03-06T14:53:17.214Z,39.58
2023-03-06T14:56:02.267Z,40.66
2023-03-06T14:58:45.273Z,40.09
2023-03-06T15:01:13.905Z,40.46
2023-03-06T15:03:48.694Z,43.85
2023-03-06T15:06:23.116Z,42.39
2023-03-06T15:09:24.855Z,44.07
2023-03-06T15:12:30.060Z,44.33
2023-03-06T15:14:58.974Z,44.30
2023-03-06T15:17:30.396Z,44.12
2023-03-06T15:19:59.769Z,46.76
2023-03-06T15:22:41.461Z,45.49
2023-03-06T15:25:26.887Z,46.42
2023-03-06T15:28:28.853Z,48.16
2023-03-06T15:31:11.266Z,49.37
2023-03-06T15:33:38.607Z,49.96
2023-03-06T15:36:18.811Z,47.55
2023-03-06T15:38:47.200Z,47.31
2023-03-06T15:41:42.290Z,45.67
2023-03-06T15:44:13.733Z,44.87
2023-03-06T15:46:42.583Z,43.86
2023-03-06T15:49:19.457Z,44.36
2023-03-06T15:51:46.558Z,44.95
2023-03-06T15:54:13.783Z,44.87
2023-03-06T15:56:43.879Z,44.43
2023-03-06T15:59:20.146Z,43.16
2023-03-06T16:01:49.292Z,43.08
2023-03-06T16:04:17.301Z,42.26
2023-03-06T16:06:48.118Z,43.06
2023-03-06T16:09:15.263Z,42.78
2023-03-06T16:11:45.045Z,43.31
2023-03-06T16:14:18.945Z,43.72
2023-03-06T16:16:46.187Z,44.44
2023-03-06T16:19:26.036Z,44.46
2023-03-06T16:21:54.697Z,44.95
2023-03-06T16:24:22.358Z,44.87
2023-03-06T16:26:51.492Z,45.00
2023-03-06T16:29:23.235Z,44.67
2023-03-06T16:31:50.699Z,44.13
2023-03-06T16:34:19.965Z,45.61
2023-03-06T16:36:48.487Z,46.93
2023-03-06T16:39:17.678Z,46.77
2023-03-06T16:41:46.093Z,46.16
2023-03-06T16:44:13.739Z,47.31
2023-03-06T16:46:46.783Z,46.74
2023-03-06T16:49:19.233Z,46.10
2023-03-06T16:51:46.308Z,46.24
2023-03-06T16:54:13.550Z,46.04
2023-03-06T16:56:40.641Z,46.54
2023-03-06T16:59:07.788Z,46.37
2023-03-06T17:01:34.838Z,47.81
2023-03-06T17:04:02.084Z,48.28
2023-03-06T17:06:30.584Z,48.11
2023-03-06T17:09:00.336Z,48.60
2023-03-06T17:11:28.490Z,50.06
2023-03-06T17:13:55.540Z,49.47
2023-03-06T17:16:23.352Z,50.59
2023-03-06T17:18:50.409Z,49.46
2023-03-06T17:21:17.828Z,48.78
2023-03-06T17:23:45.554Z,48.53
2023-03-06T17:26:19.291Z,48.01
2023-03-06T17:28:47.058Z,48.21
2023-03-06T17:31:22.470Z,47.99
2023-03-06T17:33:51.821Z,47.85
2023-03-06T17:36:20.836Z,47.67
2023-03-06T17:38:50.168Z,50.91
2023-03-06T17:41:17.477Z,50.38
2023-03-06T17:43:44.422Z,49.90
2023-03-06T17:46:13.812Z,49.60
2023-03-06T17:48:42.915Z,49.93
2023-03-06T17:51:09.984Z,50.17
2023-03-06T17:53:37.723Z,49.71
2023-03-06T17:56:06.923Z,49.35
2023-03-06T17:58:34.888Z,48.45
2023-03-06T18:01:10.130Z,47.96
2023-03-06T18:03:38.697Z,48.30
2023-03-06T18:06:09.669Z,48.36
2023-03-06T18:08:38.190Z,48.14
2023-03-06T18:11:08.432Z,48.40
2023-03-06T18:13:38.521Z,48.18
2023-03-06T18:16:07.269Z,48.13
2023-03-06T18:18:34.699Z,48.08
2023-03-06T18:21:10.420Z,48.77
2023-03-06T18:23:39.016Z,51.64
2023-03-06T18:26:24.478Z,52.74
2023-03-06T18:28:59.346Z,50.84
2023-03-06T18:31:35.644Z,50.14
2023-03-06T18:34:06.767Z,49.84
2023-03-06T18:36:34.531Z,49.84
2023-03-06T18:39:04.051Z,51.44
2023-03-06T18:41:32.002Z,50.86
2023-03-06T18:44:01.060Z,51.21
2023-03-06T18:46:33.957Z,50.81
2023-03-06T18:49:01.854Z,51.21
2023-03-06T18:51:29.123Z,52.10
2023-03-06T18:54:00.941Z,52.95
2023-03-06T18:56:28.411Z,53.21
2023-03-06T18:58:56.049Z,54.52
2023-03-06T19:01:23.397Z,61.13
2023-03-06T19:03:50.657Z,65.64
2023-03-06T19:06:18.410Z,67.15
2023-03-06T19:08:45.533Z,68.55
2023-03-06T19:11:17.584Z,70.81
2023-03-06T19:13:45.102Z,74.54
2023-03-06T19:16:21.045Z,73.54
2023-03-06T19:18:48.218Z,72.29
2023-03-06T19:21:18.664Z,75.12
2023-03-06T19:23:46.197Z,77.11
2023-03-06T19:26:14.038Z,80.44
2023-03-06T19:28:42.649Z,83.98
2023-03-06T19:31:21.757Z,85.49
2023-03-06T19:33:50.265Z,86.19
2023-03-06T19:36:18.696Z,84.27
2023-03-06T19:38:50.535Z,84.89
2023-03-06T19:41:17.720Z,86.92
2023-03-06T19:43:44.971Z,93.13
2023-03-06T19:46:15.297Z,95.11
2023-03-06T19:48:43.056Z,96.51
2023-03-06T19:51:11.769Z,96.71
2023-03-06T19:53:43.325Z,98.46
2023-03-06T19:56:19.808Z,100.00
2023-03-06T19:58:49.324Z,100.00
2023-03-06T20:01:22.321Z,100.00
2023-03-06T20:03:51.384Z,100.00
2023-03-06T20:06:20.125Z,100.00
2023-03-06T20:08:51.561Z,100.00
2023-03-06T20:11:32.903Z,100.00
2023-03-06T20:14:02.217Z,100.00
2023-03-06T20:16:34.606Z,100.00
2023-03-06T20:19:11.355Z,100.00
2023-03-06T20:21:38.679Z,100.00
2023-03-06T20:24:08.863Z,99.84
2023-03-06T20:26:59.977Z,100.00
2023-03-06T20:29:37.110Z,97.81
2023-03-06T20:32:04.565Z,93.44
2023-03-06T20:34:31.737Z,92.39
2023-03-06T20:36:59.259Z,89.97
2023-03-06T20:39:27.120Z,88.42
2023-03-06T20:41:54.318Z,89.22
2023-03-06T20:44:21.544Z,88.58
2023-03-06T20:46:49.701Z,86.40
2023-03-06T20:49:16.715Z,84.57
2023-03-06T20:51:43.742Z,80.68
2023-03-06T20:54:13.776Z,80.73
2023-03-06T20:56:41.751Z,79.31
2023-03-06T20:59:11.864Z,80.48
2023-03-06T21:01:41.902Z,81.88
2023-03-06T21:04:14.035Z,82.71
2023-03-06T21:06:44.667Z,82.37
2023-03-06T21:09:11.764Z,82.42
2023-03-06T21:11:39.474Z,80.66
2023-03-06T21:14:07.252Z,80.50
2023-03-06T21:16:34.447Z,84.31
2023-03-06T21:19:01.961Z,82.26
2023-03-06T21:21:34.727Z,82.07
2023-03-06T21:24:02.797Z,82.28
2023-03-06T21:26:34.078Z,78.57
2023-03-06T21:29:03.114Z,78.66
2023-03-06T21:31:31.509Z,78.44
2023-03-06T21:33:59.286Z,78.58
2023-03-06T21:36:27.082Z,78.21
2023-03-06T21:38:54.971Z,78.14
2023-03-06T21:41:25.682Z,77.19
2023-03-06T21:44:00.336Z,77.79
2023-03-06T21:46:28.180Z,76.70
2023-03-06T21:48:56.652Z,76.54
2023-03-06T21:51:25.313Z,76.34
2023-03-06T21:53:55.349Z,75.04
2023-03-06T21:56:26.030Z,73.38
2023-03-06T21:59:13.265Z,71.21
2023-03-06T22:01:42.778Z,72.26
2023-03-06T22:04:10.339Z,71.93
2023-03-06T22:06:40.582Z,70.79
2023-03-06T22:09:08.153Z,72.03
2023-03-06T22:11:37.446Z,73.28
2023-03-06T22:14:05.400Z,73.90
2023-03-06T22:16:33.053Z,74.15
2023-03-06T22:19:00.162Z,73.98
2023-03-06T22:21:27.393Z,74.07
2023-03-06T22:23:59.873Z,78.35
2023-03-06T22:26:28.614Z,77.08
2023-03-06T22:28:56.024Z,75.73
2023-03-06T22:31:27.380Z,74.86
2023-03-06T22:33:56.887Z,75.57
2023-03-06T22:36:24.803Z,76.78
2023-03-06T22:38:57.077Z,75.66
2023-03-06T22:41:27.087Z,74.76
2023-03-06T22:43:58.762Z,75.55
2023-03-06T22:46:26.910Z,74.25
2023-03-06T22:48:57.147Z,72.83
2023-03-06T22:51:26.259Z,72.31
2023-03-06T22:53:53.506Z,71.82
2023-03-06T22:56:22.178Z,72.33
2023-03-06T22:58:49.852Z,73.36
2023-03-06T23:01:23.504Z,73.15
2023-03-06T23:03:53.913Z,72.99
2023-03-06T23:06:46.949Z,72.41
2023-03-06T23:09:19.535Z,73.47
2023-03-06T23:11:46.979Z,72.94
2023-03-06T23:14:19.230Z,72.07
2023-03-06T23:16:46.819Z,73.48
2023-03-06T23:19:15.811Z,76.94
2023-03-06T23:21:44.144Z,76.23
2023-03-06T23:24:11.654Z,76.19
2023-03-06T23:26:39.007Z,77.59
2023-03-06T23:29:05.927Z,77.14
2023-03-06T23:31:33.007Z,76.49
2023-03-06T23:34:03.703Z,76.14
2023-03-06T23:36:33.355Z,75.41
2023-03-06T23:39:00.485Z,74.45
2023-03-06T23:41:27.659Z,78.18
2023-03-06T23:43:55.471Z,76.96
2023-03-06T23:46:22.953Z,76.03
2023-03-06T23:48:51.065Z,88.63
2023-03-06T23:51:21.664Z,82.28
2023-03-06T23:54:00.006Z,81.54
2023-03-06T23:56:28.549Z,80.44
2023-03-06T23:58:56.785Z,79.84
